MMML/MXL METAR and TAF weather

Enter ICAO airport designator
Station Type Date Time Source
MMML METAR 2020/07/14 21:44 UTC NOAA

MMML 142144Z 09003KT 10SM SKC 42/07 A2975 RMK HZY ISOL CI


Station Type Date Time Source
MMML Decoded METAR 2020/07/14 21:44 UTC NOAA

Mexicali International Airport , Mexico (MMML) 32-38N 117-00W
Jul 14, 2020 - 05:44 PM EDT / 2020.07.14 2144 UTC
Wind: from the E (090 degrees) at 3 MPH (3 KT):0
Visibility: 10 mile(s):0
Sky conditions: clear
Temperature: 107 F (42 C)
Dew Point: 44 F (7 C)
Relative Humidity: 12%
Pressure (altimeter): 29.75 in. Hg (1007 hPa)
ob: MMML 142144Z 09003KT 10SM SKC 42/07 A2975 RMK HZY ISOL CI
cycle: 21

Station Type Date Time Source
MMML TAF 2020/07/14 18:14 UTC NOAA

TAF MMML 141707Z 1418/1518 16010KTP6SM SCT250
FM150300 00000KT P6SM SCT250

Example: see airport list